sensor_id;sensor_type;location;lat;lon;timestamp;pressure;altitude;pressure_sealevel;temperature
11849;BMP180;5983;49.966;8.052;2023-04-09T00:00:10;101387.00;;;8.70
11849;BMP180;5983;49.966;8.052;2023-04-09T00:02:37;101383.00;;;8.70
11849;BMP180;5983;49.966;8.052;2023-04-09T00:05:05;101372.00;;;8.70
11849;BMP180;5983;49.966;8.052;2023-04-09T00:07:31;101379.00;;;8.70
11849;BMP180;5983;49.966;8.052;2023-04-09T00:09:58;101377.00;;;8.80
11849;BMP180;5983;49.966;8.052;2023-04-09T00:12:26;101374.00;;;8.80
11849;BMP180;5983;49.966;8.052;2023-04-09T00:14:55;101371.00;;;8.80
11849;BMP180;5983;49.966;8.052;2023-04-09T00:17:21;101381.00;;;8.80
11849;BMP180;5983;49.966;8.052;2023-04-09T00:19:48;101372.00;;;8.90
11849;BMP180;5983;49.966;8.052;2023-04-09T00:22:15;101359.00;;;8.90
11849;BMP180;5983;49.966;8.052;2023-04-09T00:24:42;101367.00;;;8.90
11849;BMP180;5983;49.966;8.052;2023-04-09T00:27:08;101366.00;;;8.90
11849;BMP180;5983;49.966;8.052;2023-04-09T00:32:05;101372.00;;;8.90
11849;BMP180;5983;49.966;8.052;2023-04-09T00:34:32;101363.00;;;8.90
11849;BMP180;5983;49.966;8.052;2023-04-09T00:36:58;101351.00;;;9.00
11849;BMP180;5983;49.966;8.052;2023-04-09T00:39:25;101358.00;;;9.00
11849;BMP180;5983;49.966;8.052;2023-04-09T00:41:55;101352.00;;;9.00
11849;BMP180;5983;49.966;8.052;2023-04-09T00:44:22;101365.00;;;8.90
11849;BMP180;5983;49.966;8.052;2023-04-09T00:46:49;101358.00;;;8.90
11849;BMP180;5983;49.966;8.052;2023-04-09T00:49:17;101358.00;;;8.90
11849;BMP180;5983;49.966;8.052;2023-04-09T00:51:44;101346.00;;;8.80
11849;BMP180;5983;49.966;8.052;2023-04-09T00:54:11;101352.00;;;8.90
11849;BMP180;5983;49.966;8.052;2023-04-09T00:56:39;101352.00;;;8.80
11849;BMP180;5983;49.966;8.052;2023-04-09T00:59:06;101355.00;;;8.80
11849;BMP180;5983;49.966;8.052;2023-04-09T01:01:33;101361.00;;;8.80
11849;BMP180;5983;49.966;8.052;2023-04-09T01:04:00;101358.00;;;8.80
11849;BMP180;5983;49.966;8.052;2023-04-09T01:06:38;101350.00;;;8.90
11849;BMP180;5983;49.966;8.052;2023-04-09T01:09:13;101348.00;;;8.90
11849;BMP180;5983;49.966;8.052;2023-04-09T01:11:45;101359.00;;;8.90
11849;BMP180;5983;49.966;8.052;2023-04-09T01:14:22;101351.00;;;8.80
11849;BMP180;5983;49.966;8.052;2023-04-09T01:16:56;101360.00;;;8.80
11849;BMP180;5983;49.966;8.052;2023-04-09T01:19:40;101350.00;;;8.80
11849;BMP180;5983;49.966;8.052;2023-04-09T01:22:22;101345.00;;;8.80
11849;BMP180;5983;49.966;8.052;2023-04-09T01:24:59;101340.00;;;8.70
11849;BMP180;5983;49.966;8.052;2023-04-09T01:27:36;101345.00;;;8.70
11849;BMP180;5983;49.966;8.052;2023-04-09T01:30:06;101339.00;;;8.70
11849;BMP180;5983;49.966;8.052;2023-04-09T01:32:36;101342.00;;;8.70
11849;BMP180;5983;49.966;8.052;2023-04-09T01:35:05;101343.00;;;8.70
11849;BMP180;5983;49.966;8.052;2023-04-09T01:37:33;101349.00;;;8.70
11849;BMP180;5983;49.966;8.052;2023-04-09T01:40:00;101347.00;;;8.70
11849;BMP180;5983;49.966;8.052;2023-04-09T01:42:29;101339.00;;;8.70
11849;BMP180;5983;49.966;8.052;2023-04-09T01:44:56;101345.00;;;8.70
11849;BMP180;5983;49.966;8.052;2023-04-09T01:47:26;101350.00;;;8.70
11849;BMP180;5983;49.966;8.052;2023-04-09T01:49:53;101350.00;;;8.70
11849;BMP180;5983;49.966;8.052;2023-04-09T01:52:19;101351.00;;;8.70
11849;BMP180;5983;49.966;8.052;2023-04-09T01:54:47;101352.00;;;8.70
11849;BMP180;5983;49.966;8.052;2023-04-09T01:57:13;101350.00;;;8.70
11849;BMP180;5983;49.966;8.052;2023-04-09T01:59:40;101352.00;;;8.70
11849;BMP180;5983;49.966;8.052;2023-04-09T02:02:09;101345.00;;;8.70
11849;BMP180;5983;49.966;8.052;2023-04-09T02:04:40;101357.00;;;8.60
11849;BMP180;5983;49.966;8.052;2023-04-09T02:07:13;101352.00;;;8.60
11849;BMP180;5983;49.966;8.052;2023-04-09T02:09:41;101358.00;;;8.60
11849;BMP180;5983;49.966;8.052;2023-04-09T02:12:11;101359.00;;;8.60
11849;BMP180;5983;49.966;8.052;2023-04-09T02:14:39;101355.00;;;8.60
11849;BMP180;5983;49.966;8.052;2023-04-09T02:17:06;101363.00;;;8.60
11849;BMP180;5983;49.966;8.052;2023-04-09T02:19:42;101358.00;;;8.60
11849;BMP180;5983;49.966;8.052;2023-04-09T02:22:11;101350.00;;;8.60
11849;BMP180;5983;49.966;8.052;2023-04-09T02:24:38;101350.00;;;8.60
11849;BMP180;5983;49.966;8.052;2023-04-09T02:27:06;101350.00;;;8.60
11849;BMP180;5983;49.966;8.052;2023-04-09T02:29:33;101359.00;;;8.60
11849;BMP180;5983;49.966;8.052;2023-04-09T02:31:59;101363.00;;;8.70
11849;BMP180;5983;49.966;8.052;2023-04-09T02:34:26;101358.00;;;8.70
11849;BMP180;5983;49.966;8.052;2023-04-09T02:36:54;101355.00;;;8.70
11849;BMP180;5983;49.966;8.052;2023-04-09T02:39:21;101368.00;;;8.60
11849;BMP180;5983;49.966;8.052;2023-04-09T02:41:48;101351.00;;;8.60
11849;BMP180;5983;49.966;8.052;2023-04-09T02:44:15;101362.00;;;8.60
11849;BMP180;5983;49.966;8.052;2023-04-09T02:46:45;101351.00;;;8.60
11849;BMP180;5983;49.966;8.052;2023-04-09T02:49:12;101360.00;;;8.60
11849;BMP180;5983;49.966;8.052;2023-04-09T02:51:39;101350.00;;;8.60
11849;BMP180;5983;49.966;8.052;2023-04-09T02:54:07;101362.00;;;8.60
11849;BMP180;5983;49.966;8.052;2023-04-09T02:56:33;101358.00;;;8.60
11849;BMP180;5983;49.966;8.052;2023-04-09T02:59:00;101361.00;;;8.60
11849;BMP180;5983;49.966;8.052;2023-04-09T03:01:27;101356.00;;;8.60
11849;BMP180;5983;49.966;8.052;2023-04-09T03:03:54;101357.00;;;8.60
11849;BMP180;5983;49.966;8.052;2023-04-09T03:06:20;101363.00;;;8.60
11849;BMP180;5983;49.966;8.052;2023-04-09T03:08:47;101356.00;;;8.50
11849;BMP180;5983;49.966;8.052;2023-04-09T03:11:15;101352.00;;;8.50
11849;BMP180;5983;49.966;8.052;2023-04-09T03:13:42;101347.00;;;8.50
11849;BMP180;5983;49.966;8.052;2023-04-09T03:16:08;101357.00;;;8.50
11849;BMP180;5983;49.966;8.052;2023-04-09T03:18:35;101352.00;;;8.50
11849;BMP180;5983;49.966;8.052;2023-04-09T03:21:04;101338.00;;;8.50
11849;BMP180;5983;49.966;8.052;2023-04-09T03:23:32;101336.00;;;8.40
11849;BMP180;5983;49.966;8.052;2023-04-09T03:26:00;101333.00;;;8.40
11849;BMP180;5983;49.966;8.052;2023-04-09T03:28:29;101332.00;;;8.40
11849;BMP180;5983;49.966;8.052;2023-04-09T03:30:56;101333.00;;;8.40
11849;BMP180;5983;49.966;8.052;2023-04-09T03:33:23;101329.00;;;8.40
11849;BMP180;5983;49.966;8.052;2023-04-09T03:35:50;101333.00;;;8.30
11849;BMP180;5983;49.966;8.052;2023-04-09T03:38:17;101322.00;;;8.30
11849;BMP180;5983;49.966;8.052;2023-04-09T03:40:44;101327.00;;;8.30
11849;BMP180;5983;49.966;8.052;2023-04-09T03:43:10;101336.00;;;8.20
11849;BMP180;5983;49.966;8.052;2023-04-09T03:45:38;101315.00;;;8.20
11849;BMP180;5983;49.966;8.052;2023-04-09T03:48:05;101322.00;;;8.10
11849;BMP180;5983;49.966;8.052;2023-04-09T03:50:37;101322.00;;;7.90
11849;BMP180;5983;49.966;8.052;2023-04-09T03:53:04;101326.00;;;7.80
11849;BMP180;5983;49.966;8.052;2023-04-09T03:55:31;101324.00;;;7.60
11849;BMP180;5983;49.966;8.052;2023-04-09T03:57:58;101312.00;;;7.50
11849;BMP180;5983;49.966;8.052;2023-04-09T04:00:24;101322.00;;;7.50
11849;BMP180;5983;49.966;8.052;2023-04-09T04:02:52;101319.00;;;7.40
11849;BMP180;5983;49.966;8.052;2023-04-09T04:05:21;101317.00;;;7.40
11849;BMP180;5983;49.966;8.052;2023-04-09T04:07:48;101324.00;;;7.30
11849;BMP180;5983;49.966;8.052;2023-04-09T04:10:15;101314.00;;;7.30
11849;BMP180;5983;49.966;8.052;2023-04-09T04:12:42;101319.00;;;7.20
11849;BMP180;5983;49.966;8.052;2023-04-09T04:15:09;101318.00;;;7.10
11849;BMP180;5983;49.966;8.052;2023-04-09T04:17:35;101315.00;;;7.00
11849;BMP180;5983;49.966;8.052;2023-04-09T04:20:04;101318.00;;;6.90
11849;BMP180;5983;49.966;8.052;2023-04-09T04:22:32;101335.00;;;6.80
11849;BMP180;5983;49.966;8.052;2023-04-09T04:24:59;101334.00;;;6.70
11849;BMP180;5983;49.966;8.052;2023-04-09T04:27:26;101326.00;;;6.70
11849;BMP180;5983;49.966;8.052;2023-04-09T04:29:53;101327.00;;;6.60
11849;BMP180;5983;49.966;8.052;2023-04-09T04:32:20;101325.00;;;6.60
11849;BMP180;5983;49.966;8.052;2023-04-09T04:34:47;101330.00;;;6.50
11849;BMP180;5983;49.966;8.052;2023-04-09T04:37:15;101327.00;;;6.50
11849;BMP180;5983;49.966;8.052;2023-04-09T04:39:42;101317.00;;;6.40
11849;BMP180;5983;49.966;8.052;2023-04-09T04:42:09;101328.00;;;6.40
11849;BMP180;5983;49.966;8.052;2023-04-09T04:44:35;101330.00;;;6.30
11849;BMP180;5983;49.966;8.052;2023-04-09T04:47:02;101333.00;;;6.30
11849;BMP180;5983;49.966;8.052;2023-04-09T04:49:29;101330.00;;;6.20
11849;BMP180;5983;49.966;8.052;2023-04-09T04:51:56;101335.00;;;6.20
11849;BMP180;5983;49.966;8.052;2023-04-09T04:54:24;101328.00;;;6.20
11849;BMP180;5983;49.966;8.052;2023-04-09T04:56:50;101326.00;;;6.20
11849;BMP180;5983;49.966;8.052;2023-04-09T04:59:17;101331.00;;;6.10
11849;BMP180;5983;49.966;8.052;2023-04-09T05:01:44;101331.00;;;6.10
11849;BMP180;5983;49.966;8.052;2023-04-09T05:04:10;101335.00;;;6.00
11849;BMP180;5983;49.966;8.052;2023-04-09T05:06:37;101344.00;;;6.00
11849;BMP180;5983;49.966;8.052;2023-04-09T05:09:04;101343.00;;;6.00
11849;BMP180;5983;49.966;8.052;2023-04-09T05:11:32;101338.00;;;6.00
11849;BMP180;5983;49.966;8.052;2023-04-09T05:13:59;101337.00;;;6.00
11849;BMP180;5983;49.966;8.052;2023-04-09T05:16:25;101340.00;;;6.00
11849;BMP180;5983;49.966;8.052;2023-04-09T05:18:52;101346.00;;;6.00
11849;BMP180;5983;49.966;8.052;2023-04-09T05:21:19;101339.00;;;6.00
11849;BMP180;5983;49.966;8.052;2023-04-09T05:23:45;101349.00;;;6.00
11849;BMP180;5983;49.966;8.052;2023-04-09T05:26:12;101337.00;;;6.10
11849;BMP180;5983;49.966;8.052;2023-04-09T05:28:40;101345.00;;;6.10
11849;BMP180;5983;49.966;8.052;2023-04-09T05:31:07;101357.00;;;6.20
11849;BMP180;5983;49.966;8.052;2023-04-09T05:33:37;101352.00;;;6.20
11849;BMP180;5983;49.966;8.052;2023-04-09T05:36:04;101356.00;;;6.30
11849;BMP180;5983;49.966;8.052;2023-04-09T05:38:31;101350.00;;;6.40
11849;BMP180;5983;49.966;8.052;2023-04-09T05:40:58;101357.00;;;6.50
11849;BMP180;5983;49.966;8.052;2023-04-09T05:43:25;101355.00;;;6.60
11849;BMP180;5983;49.966;8.052;2023-04-09T05:45:53;101365.00;;;6.70
11849;BMP180;5983;49.966;8.052;2023-04-09T05:48:20;101352.00;;;6.90
11849;BMP180;5983;49.966;8.052;2023-04-09T05:50:50;101366.00;;;6.90
11849;BMP180;5983;49.966;8.052;2023-04-09T05:53:18;101357.00;;;7.00
11849;BMP180;5983;49.966;8.052;2023-04-09T05:55:44;101361.00;;;7.20
11849;BMP180;5983;49.966;8.052;2023-04-09T05:58:13;101352.00;;;7.30
11849;BMP180;5983;49.966;8.052;2023-04-09T06:00:40;101361.00;;;7.40
11849;BMP180;5983;49.966;8.052;2023-04-09T06:03:08;101365.00;;;7.60
11849;BMP180;5983;49.966;8.052;2023-04-09T06:05:35;101363.00;;;7.70
11849;BMP180;5983;49.966;8.052;2023-04-09T06:08:02;101364.00;;;7.90
11849;BMP180;5983;49.966;8.052;2023-04-09T06:10:31;101351.00;;;8.10
11849;BMP180;5983;49.966;8.052;2023-04-09T06:12:57;101358.00;;;8.30
11849;BMP180;5983;49.966;8.052;2023-04-09T06:15:24;101363.00;;;8.50
11849;BMP180;5983;49.966;8.052;2023-04-09T06:17:51;101366.00;;;8.60
11849;BMP180;5983;49.966;8.052;2023-04-09T06:20:19;101375.00;;;8.80
11849;BMP180;5983;49.966;8.052;2023-04-09T06:22:45;101371.00;;;8.90
11849;BMP180;5983;49.966;8.052;2023-04-09T06:25:12;101373.00;;;9.20
11849;BMP180;5983;49.966;8.052;2023-04-09T06:27:39;101375.00;;;9.90
11849;BMP180;5983;49.966;8.052;2023-04-09T06:32:34;101386.00;;;12.20
11849;BMP180;5983;49.966;8.052;2023-04-09T06:35:00;101392.00;;;13.40
11849;BMP180;5983;49.966;8.052;2023-04-09T06:37:29;101399.00;;;14.50
11849;BMP180;5983;49.966;8.052;2023-04-09T06:39:56;101391.00;;;15.30
11849;BMP180;5983;49.966;8.052;2023-04-09T06:42:22;101395.00;;;16.10
11849;BMP180;5983;49.966;8.052;2023-04-09T06:44:50;101410.00;;;16.70
11849;BMP180;5983;49.966;8.052;2023-04-09T06:47:17;101406.00;;;16.90
11849;BMP180;5983;49.966;8.052;2023-04-09T06:49:43;101409.00;;;17.00
11849;BMP180;5983;49.966;8.052;2023-04-09T06:52:10;101409.00;;;16.80
11849;BMP180;5983;49.966;8.052;2023-04-09T06:54:38;101412.00;;;16.40
11849;BMP180;5983;49.966;8.052;2023-04-09T06:57:06;101407.00;;;15.70
11849;BMP180;5983;49.966;8.052;2023-04-09T06:59:33;101404.00;;;15.10
11849;BMP180;5983;49.966;8.052;2023-04-09T07:02:00;101407.00;;;14.70
11849;BMP180;5983;49.966;8.052;2023-04-09T07:04:26;101403.00;;;14.50
11849;BMP180;5983;49.966;8.052;2023-04-09T07:06:53;101405.00;;;14.50
11849;BMP180;5983;49.966;8.052;2023-04-09T07:09:21;101399.00;;;14.50
11849;BMP180;5983;49.966;8.052;2023-04-09T07:11:49;101401.00;;;14.30
11849;BMP180;5983;49.966;8.052;2023-04-09T07:14:16;101406.00;;;14.30
11849;BMP180;5983;49.966;8.052;2023-04-09T07:16:43;101400.00;;;14.50
11849;BMP180;5983;49.966;8.052;2023-04-09T07:19:11;101402.00;;;14.70
11849;BMP180;5983;49.966;8.052;2023-04-09T07:21:38;101410.00;;;14.80
11849;BMP180;5983;49.966;8.052;2023-04-09T07:24:05;101410.00;;;14.90
11849;BMP180;5983;49.966;8.052;2023-04-09T07:26:32;101419.00;;;15.00
11849;BMP180;5983;49.966;8.052;2023-04-09T07:29:00;101417.00;;;15.10
11849;BMP180;5983;49.966;8.052;2023-04-09T07:31:28;101418.00;;;15.00
11849;BMP180;5983;49.966;8.052;2023-04-09T07:33:56;101417.00;;;15.10
11849;BMP180;5983;49.966;8.052;2023-04-09T07:36:22;101425.00;;;15.30
11849;BMP180;5983;49.966;8.052;2023-04-09T07:38:50;101410.00;;;15.30
11849;BMP180;5983;49.966;8.052;2023-04-09T07:41:17;101411.00;;;15.50
11849;BMP180;5983;49.966;8.052;2023-04-09T07:43:44;101421.00;;;15.60
11849;BMP180;5983;49.966;8.052;2023-04-09T07:46:18;101425.00;;;15.80
11849;BMP180;5983;49.966;8.052;2023-04-09T07:48:45;101422.00;;;15.90
11849;BMP180;5983;49.966;8.052;2023-04-09T07:51:12;101416.00;;;16.00
11849;BMP180;5983;49.966;8.052;2023-04-09T07:53:39;101418.00;;;16.00
11849;BMP180;5983;49.966;8.052;2023-04-09T07:56:07;101423.00;;;16.00
11849;BMP180;5983;49.966;8.052;2023-04-09T07:58:35;101429.00;;;16.30
11849;BMP180;5983;49.966;8.052;2023-04-09T08:01:02;101423.00;;;16.20
11849;BMP180;5983;49.966;8.052;2023-04-09T08:03:31;101424.00;;;16.30
11849;BMP180;5983;49.966;8.052;2023-04-09T08:05:58;101431.00;;;16.40
11849;BMP180;5983;49.966;8.052;2023-04-09T08:08:24;101425.00;;;16.40
11849;BMP180;5983;49.966;8.052;2023-04-09T08:10:51;101428.00;;;16.50
11849;BMP180;5983;49.966;8.052;2023-04-09T08:13:18;101419.00;;;16.60
11849;BMP180;5983;49.966;8.052;2023-04-09T08:15:44;101426.00;;;16.80
11849;BMP180;5983;49.966;8.052;2023-04-09T08:18:11;101427.00;;;17.00
11849;BMP180;5983;49.966;8.052;2023-04-09T08:20:40;101432.00;;;17.10
11849;BMP180;5983;49.966;8.052;2023-04-09T08:23:09;101435.00;;;17.20
11849;BMP180;5983;49.966;8.052;2023-04-09T08:25:36;101440.00;;;17.30
11849;BMP180;5983;49.966;8.052;2023-04-09T08:28:03;101426.00;;;17.30
11849;BMP180;5983;49.966;8.052;2023-04-09T08:30:30;101437.00;;;17.40
11849;BMP180;5983;49.966;8.052;2023-04-09T08:32:58;101435.00;;;17.40
11849;BMP180;5983;49.966;8.052;2023-04-09T08:35:25;101441.00;;;17.40
11849;BMP180;5983;49.966;8.052;2023-04-09T08:37:54;101433.00;;;17.50
11849;BMP180;5983;49.966;8.052;2023-04-09T08:40:21;101440.00;;;17.60
11849;BMP180;5983;49.966;8.052;2023-04-09T08:42:53;101446.00;;;17.70
11849;BMP180;5983;49.966;8.052;2023-04-09T08:45:20;101443.00;;;17.80
11849;BMP180;5983;49.966;8.052;2023-04-09T08:47:49;101438.00;;;18.00
11849;BMP180;5983;49.966;8.052;2023-04-09T08:50:16;101447.00;;;18.00
11849;BMP180;5983;49.966;8.052;2023-04-09T08:52:45;101447.00;;;17.90
11849;BMP180;5983;49.966;8.052;2023-04-09T08:55:13;101444.00;;;18.10
11849;BMP180;5983;49.966;8.052;2023-04-09T08:57:40;101450.00;;;18.10
11849;BMP180;5983;49.966;8.052;2023-04-09T09:00:08;101450.00;;;18.10
11849;BMP180;5983;49.966;8.052;2023-04-09T09:02:34;101459.00;;;18.40
11849;BMP180;5983;49.966;8.052;2023-04-09T09:05:03;101455.00;;;18.50
11849;BMP180;5983;49.966;8.052;2023-04-09T09:07:30;101464.00;;;18.90
11849;BMP180;5983;49.966;8.052;2023-04-09T09:09:58;101455.00;;;19.00
11849;BMP180;5983;49.966;8.052;2023-04-09T09:12:36;101464.00;;;19.10
11849;BMP180;5983;49.966;8.052;2023-04-09T09:15:24;101458.00;;;19.30
11849;BMP180;5983;49.966;8.052;2023-04-09T09:17:53;101456.00;;;19.10
11849;BMP180;5983;49.966;8.052;2023-04-09T09:20:21;101465.00;;;18.90
11849;BMP180;5983;49.966;8.052;2023-04-09T09:22:48;101455.00;;;18.50
11849;BMP180;5983;49.966;8.052;2023-04-09T09:25:15;101451.00;;;18.50
11849;BMP180;5983;49.966;8.052;2023-04-09T09:27:44;101452.00;;;18.90
11849;BMP180;5983;49.966;8.052;2023-04-09T09:30:19;101457.00;;;19.20
11849;BMP180;5983;49.966;8.052;2023-04-09T09:32:50;101448.00;;;19.50
11849;BMP180;5983;49.966;8.052;2023-04-09T09:35:16;101465.00;;;19.50
11849;BMP180;5983;49.966;8.052;2023-04-09T09:37:43;101456.00;;;19.30
11849;BMP180;5983;49.966;8.052;2023-04-09T09:40:25;101448.00;;;19.10
11849;BMP180;5983;49.966;8.052;2023-04-09T09:42:55;101450.00;;;19.10
11849;BMP180;5983;49.966;8.052;2023-04-09T09:45:22;101446.00;;;19.30
11849;BMP180;5983;49.966;8.052;2023-04-09T09:47:51;101442.00;;;19.50
11849;BMP180;5983;49.966;8.052;2023-04-09T09:50:19;101454.00;;;19.60
11849;BMP180;5983;49.966;8.052;2023-04-09T09:52:49;101445.00;;;19.60
11849;BMP180;5983;49.966;8.052;2023-04-09T09:55:20;101443.00;;;19.90
11849;BMP180;5983;49.966;8.052;2023-04-09T09:57:49;101435.00;;;20.00
11849;BMP180;5983;49.966;8.052;2023-04-09T10:00:19;101438.00;;;20.10
11849;BMP180;5983;49.966;8.052;2023-04-09T10:02:53;101432.00;;;20.50
11849;BMP180;5983;49.966;8.052;2023-04-09T10:05:22;101440.00;;;20.30
11849;BMP180;5983;49.966;8.052;2023-04-09T10:07:52;101432.00;;;19.60
11849;BMP180;5983;49.966;8.052;2023-04-09T10:10:20;101430.00;;;19.80
11849;BMP180;5983;49.966;8.052;2023-04-09T10:12:49;101422.00;;;19.50
11849;BMP180;5983;49.966;8.052;2023-04-09T10:15:18;101418.00;;;19.10
11849;BMP180;5983;49.966;8.052;2023-04-09T10:17:47;101414.00;;;19.50
11849;BMP180;5983;49.966;8.052;2023-04-09T10:20:19;101420.00;;;19.80
11849;BMP180;5983;49.966;8.052;2023-04-09T10:22:51;101415.00;;;20.30
11849;BMP180;5983;49.966;8.052;2023-04-09T10:25:19;101416.00;;;19.70
11849;BMP180;5983;49.966;8.052;2023-04-09T10:27:58;101424.00;;;19.20
11849;BMP180;5983;49.966;8.052;2023-04-09T10:30:34;101410.00;;;18.70
11849;BMP180;5983;49.966;8.052;2023-04-09T10:33:22;101418.00;;;19.00
11849;BMP180;5983;49.966;8.052;2023-04-09T10:35:51;101404.00;;;18.80
11849;BMP180;5983;49.966;8.052;2023-04-09T10:38:33;101412.00;;;19.10
11849;BMP180;5983;49.966;8.052;2023-04-09T10:41:13;101409.00;;;19.00
11849;BMP180;5983;49.966;8.052;2023-04-09T10:43:41;101408.00;;;19.20
11849;BMP180;5983;49.966;8.052;2023-04-09T10:46:27;101415.00;;;18.60
11849;BMP180;5983;49.966;8.052;2023-04-09T10:49:09;101415.00;;;17.80
11849;BMP180;5983;49.966;8.052;2023-04-09T10:51:37;101415.00;;;17.60
11849;BMP180;5983;49.966;8.052;2023-04-09T10:54:04;101406.00;;;17.80
11849;BMP180;5983;49.966;8.052;2023-04-09T10:56:32;101412.00;;;17.60
11849;BMP180;5983;49.966;8.052;2023-04-09T10:58:59;101412.00;;;17.60
11849;BMP180;5983;49.966;8.052;2023-04-09T11:01:27;101406.00;;;17.70
11849;BMP180;5983;49.966;8.052;2023-04-09T11:04:16;101406.00;;;17.70
11849;BMP180;5983;49.966;8.052;2023-04-09T11:06:47;101402.00;;;17.70
11849;BMP180;5983;49.966;8.052;2023-04-09T11:09:15;101398.00;;;17.70
11849;BMP180;5983;49.966;8.052;2023-04-09T11:11:42;101403.00;;;17.50
11849;BMP180;5983;49.966;8.052;2023-04-09T11:14:08;101411.00;;;17.60
11849;BMP180;5983;49.966;8.052;2023-04-09T11:16:37;101402.00;;;18.20
11849;BMP180;5983;49.966;8.052;2023-04-09T11:19:03;101404.00;;;18.80
11849;BMP180;5983;49.966;8.052;2023-04-09T11:21:30;101395.00;;;19.20
11849;BMP180;5983;49.966;8.052;2023-04-09T11:23:57;101396.00;;;19.10
11849;BMP180;5983;49.966;8.052;2023-04-09T11:26:34;101394.00;;;19.00
11849;BMP180;5983;49.966;8.052;2023-04-09T11:29:04;101394.00;;;19.40
11849;BMP180;5983;49.966;8.052;2023-04-09T11:31:33;101394.00;;;19.20
11849;BMP180;5983;49.966;8.052;2023-04-09T11:34:01;101401.00;;;18.70
11849;BMP180;5983;49.966;8.052;2023-04-09T11:36:28;101386.00;;;19.00
11849;BMP180;5983;49.966;8.052;2023-04-09T11:38:56;101379.00;;;19.50
11849;BMP180;5983;49.966;8.052;2023-04-09T11:41:32;101391.00;;;20.10
11849;BMP180;5983;49.966;8.052;2023-04-09T11:44:01;101385.00;;;20.20
11849;BMP180;5983;49.966;8.052;2023-04-09T11:46:30;101389.00;;;20.30
11849;BMP180;5983;49.966;8.052;2023-04-09T11:48:58;101389.00;;;20.00
11849;BMP180;5983;49.966;8.052;2023-04-09T11:51:27;101394.00;;;19.40
11849;BMP180;5983;49.966;8.052;2023-04-09T11:53:58;101397.00;;;18.80
11849;BMP180;5983;49.966;8.052;2023-04-09T11:56:28;101392.00;;;18.30
11849;BMP180;5983;49.966;8.052;2023-04-09T11:58:56;101389.00;;;18.10
11849;BMP180;5983;49.966;8.052;2023-04-09T12:01:23;101388.00;;;17.80
11849;BMP180;5983;49.966;8.052;2023-04-09T12:03:52;101390.00;;;17.80
11849;BMP180;5983;49.966;8.052;2023-04-09T12:06:21;101393.00;;;17.60
11849;BMP180;5983;49.966;8.052;2023-04-09T12:08:54;101387.00;;;17.40
11849;BMP180;5983;49.966;8.052;2023-04-09T12:11:28;101381.00;;;17.20
11849;BMP180;5983;49.966;8.052;2023-04-09T12:13:59;101388.00;;;17.20
11849;BMP180;5983;49.966;8.052;2023-04-09T12:16:29;101385.00;;;17.00
11849;BMP180;5983;49.966;8.052;2023-04-09T12:19:00;101376.00;;;17.00
11849;BMP180;5983;49.966;8.052;2023-04-09T12:21:45;101376.00;;;17.10
11849;BMP180;5983;49.966;8.052;2023-04-09T12:24:14;101380.00;;;17.40
11849;BMP180;5983;49.966;8.052;2023-04-09T12:26:41;101368.00;;;18.00
11849;BMP180;5983;49.966;8.052;2023-04-09T12:29:08;101372.00;;;18.20
11849;BMP180;5983;49.966;8.052;2023-04-09T12:31:35;101370.00;;;18.10
11849;BMP180;5983;49.966;8.052;2023-04-09T12:34:02;101371.00;;;17.90
11849;BMP180;5983;49.966;8.052;2023-04-09T12:36:29;101365.00;;;17.70
11849;BMP180;5983;49.966;8.052;2023-04-09T12:38:56;101365.00;;;17.70
11849;BMP180;5983;49.966;8.052;2023-04-09T12:41:24;101357.00;;;17.80
11849;BMP180;5983;49.966;8.052;2023-04-09T12:43:51;101355.00;;;18.20
11849;BMP180;5983;49.966;8.052;2023-04-09T12:46:18;101340.00;;;18.60
11849;BMP180;5983;49.966;8.052;2023-04-09T12:48:45;101350.00;;;18.60
11849;BMP180;5983;49.966;8.052;2023-04-09T12:51:13;101350.00;;;18.80
11849;BMP180;5983;49.966;8.052;2023-04-09T12:53:40;101343.00;;;18.90
11849;BMP180;5983;49.966;8.052;2023-04-09T12:56:07;101357.00;;;18.70
11849;BMP180;5983;49.966;8.052;2023-04-09T12:58:36;101345.00;;;18.70
11849;BMP180;5983;49.966;8.052;2023-04-09T13:01:04;101346.00;;;18.70
11849;BMP180;5983;49.966;8.052;2023-04-09T13:03:31;101342.00;;;18.60
11849;BMP180;5983;49.966;8.052;2023-04-09T13:05:58;101342.00;;;18.30
11849;BMP180;5983;49.966;8.052;2023-04-09T13:08:24;101345.00;;;18.40
11849;BMP180;5983;49.966;8.052;2023-04-09T13:10:51;101345.00;;;18.40
11849;BMP180;5983;49.966;8.052;2023-04-09T13:13:18;101346.00;;;18.50
11849;BMP180;5983;49.966;8.052;2023-04-09T13:15:47;101355.00;;;18.20
11849;BMP180;5983;49.966;8.052;2023-04-09T13:18:14;101345.00;;;17.80
11849;BMP180;5983;49.966;8.052;2023-04-09T13:20:41;101344.00;;;17.90
11849;BMP180;5983;49.966;8.052;2023-04-09T13:23:08;101341.00;;;18.00
11849;BMP180;5983;49.966;8.052;2023-04-09T13:25:35;101346.00;;;17.90
11849;BMP180;5983;49.966;8.052;2023-04-09T13:28:02;101342.00;;;18.10
11849;BMP180;5983;49.966;8.052;2023-04-09T13:30:29;101332.00;;;18.20
11849;BMP180;5983;49.966;8.052;2023-04-09T13:32:57;101334.00;;;18.10
11849;BMP180;5983;49.966;8.052;2023-04-09T13:35:24;101331.00;;;17.90
11849;BMP180;5983;49.966;8.052;2023-04-09T13:37:51;101321.00;;;17.70
11849;BMP180;5983;49.966;8.052;2023-04-09T13:40:18;101325.00;;;17.60
11849;BMP180;5983;49.966;8.052;2023-04-09T13:42:45;101332.00;;;17.30
11849;BMP180;5983;49.966;8.052;2023-04-09T13:45:12;101333.00;;;16.90
11849;BMP180;5983;49.966;8.052;2023-04-09T13:47:39;101329.00;;;16.50
11849;BMP180;5983;49.966;8.052;2023-04-09T13:50:09;101320.00;;;16.50
11849;BMP180;5983;49.966;8.052;2023-04-09T13:52:37;101319.00;;;16.60
11849;BMP180;5983;49.966;8.052;2023-04-09T13:55:06;101320.00;;;16.70
11849;BMP180;5983;49.966;8.052;2023-04-09T13:57:33;101320.00;;;16.60
11849;BMP180;5983;49.966;8.052;2023-04-09T14:00:00;101318.00;;;16.50
11849;BMP180;5983;49.966;8.052;2023-04-09T14:02:29;101322.00;;;16.40
11849;BMP180;5983;49.966;8.052;2023-04-09T14:04:56;101320.00;;;16.40
11849;BMP180;5983;49.966;8.052;2023-04-09T14:07:24;101316.00;;;16.50
11849;BMP180;5983;49.966;8.052;2023-04-09T14:09:52;101315.00;;;16.60
11849;BMP180;5983;49.966;8.052;2023-04-09T14:12:19;101306.00;;;16.80
11849;BMP180;5983;49.966;8.052;2023-04-09T14:14:46;101312.00;;;17.10
11849;BMP180;5983;49.966;8.052;2023-04-09T14:17:13;101309.00;;;17.20
11849;BMP180;5983;49.966;8.052;2023-04-09T14:19:40;101314.00;;;17.20
11849;BMP180;5983;49.966;8.052;2023-04-09T14:22:07;101305.00;;;17.10
11849;BMP180;5983;49.966;8.052;2023-04-09T14:24:37;101305.00;;;16.90